KLM75A EHAM-EGPH
Flight info
| Callsign | KLM75A |
|---|---|
| Flight time | 1h 7m |
| Altitude | 36000 |
| Route | BERGI L602 SUPUR P1 GODOS DCT ROKAN DCT BAZNA DCT TOWTE DCT AGPED |
| Aircraft | B738/M-SDE2E3FGHIRWXY/LB1 |
Departure
| Time | 2026-04-17 08:57 |
|---|---|
| Airport | Amsterdam Airport Schiphol (EHAM) |
Arrival
| Time | 2026-04-17 10:04 |
|---|---|
| Airport | Edinburgh Airport (EGPH) |
| Time | Latitude | Longitude | Altitude | Speed | Heading |
|---|---|---|---|---|---|
| 2026-04-17 08:28 | 52.30899 | 4.77175 | -2 ft | 0 kts | 4° |
| 2026-04-17 08:49 | 52.30887 | 4.77174 | -2 ft | 4 kts | 8° |
| 2026-04-17 08:50 | 52.30862 | 4.77161 | -2 ft | 4 kts | 33° |
| 2026-04-17 08:50 | 52.30846 | 4.77131 | -2 ft | 4 kts | 73° |
| 2026-04-17 08:50 | 52.30844 | 4.77123 | -2 ft | 0 kts | 78° |
| 2026-04-17 08:53 | 52.30845 | 4.77145 | -2 ft | 9 kts | 89° |
| 2026-04-17 08:54 | 52.30840 | 4.77309 | -2 ft | 16 kts | 93° |
| 2026-04-17 08:54 | 52.30809 | 4.77471 | -2 ft | 16 kts | 157° |
| 2026-04-17 08:54 | 52.30703 | 4.77455 | -2 ft | 15 kts | 182° |
| 2026-04-17 08:54 | 52.30608 | 4.77511 | -2 ft | 14 kts | 152° |
| 2026-04-17 08:55 | 52.30519 | 4.77576 | -2 ft | 14 kts | 167° |
| 2026-04-17 08:55 | 52.30428 | 4.77582 | -3 ft | 5 kts | 179° |
| 2026-04-17 08:55 | 52.30389 | 4.77564 | -3 ft | 7 kts | 212° |
| 2026-04-17 08:55 | 52.30374 | 4.77535 | -3 ft | 2 kts | 236° |
| 2026-04-17 08:56 | 52.30367 | 4.77518 | -3 ft | 3 kts | 236° |
| 2026-04-17 08:56 | 52.30271 | 4.77265 | -5 ft | 63 kts | 238° |
| 2026-04-17 08:56 | 52.29899 | 4.76303 | -5 ft | 134 kts | 237° |
| 2026-04-17 08:56 | 52.29298 | 4.74765 | 160 ft | 177 kts | 238° |
| 2026-04-17 08:57 | 52.28650 | 4.72972 | 846 ft | 192 kts | 238° |
| 2026-04-17 08:57 | 52.27947 | 4.71081 | 1695 ft | 198 kts | 237° |
| 2026-04-17 08:57 | 52.27110 | 4.69303 | 2579 ft | 197 kts | 217° |
| 2026-04-17 08:57 | 52.26103 | 4.68091 | 3380 ft | 198 kts | 214° |
| 2026-04-17 08:58 | 52.25017 | 4.66657 | 4087 ft | 204 kts | 221° |
| 2026-04-17 08:58 | 52.24083 | 4.64754 | 4369 ft | 230 kts | 246° |
| 2026-04-17 08:58 | 52.23657 | 4.62172 | 4977 ft | 239 kts | 254° |
| 2026-04-17 08:58 | 52.23187 | 4.59567 | 5734 ft | 240 kts | 252° |
| 2026-04-17 08:59 | 52.23023 | 4.56858 | 6408 ft | 247 kts | 279° |
| 2026-04-17 08:59 | 52.23776 | 4.54276 | 6894 ft | 266 kts | 311° |
| 2026-04-17 08:59 | 52.25293 | 4.52497 | 7617 ft | 278 kts | 329° |
| 2026-04-17 08:59 | 52.26996 | 4.50875 | 8489 ft | 282 kts | 327° |
| 2026-04-17 09:00 | 52.28654 | 4.49215 | 9348 ft | 285 kts | 327° |
| 2026-04-17 09:00 | 52.30354 | 4.47518 | 10187 ft | 288 kts | 326° |
| 2026-04-17 09:00 | 52.32092 | 4.45784 | 10787 ft | 302 kts | 326° |
| 2026-04-17 09:00 | 52.33965 | 4.43910 | 10970 ft | 329 kts | 326° |
| 2026-04-17 09:01 | 52.36061 | 4.42093 | 11139 ft | 356 kts | 340° |
| 2026-04-17 09:01 | 52.38562 | 4.41519 | 11679 ft | 369 kts | 355° |
| 2026-04-17 09:01 | 52.41139 | 4.41245 | 12379 ft | 373 kts | 353° |
| 2026-04-17 09:01 | 52.43741 | 4.40871 | 13100 ft | 377 kts | 352° |
| 2026-04-17 09:02 | 52.46358 | 4.40460 | 13832 ft | 380 kts | 352° |
| 2026-04-17 09:02 | 52.49008 | 4.40032 | 14527 ft | 384 kts | 352° |
| 2026-04-17 09:02 | 52.51681 | 4.39601 | 15202 ft | 388 kts | 352° |
| 2026-04-17 09:02 | 52.54379 | 4.39168 | 15879 ft | 391 kts | 352° |
| 2026-04-17 09:03 | 52.57099 | 4.38735 | 16535 ft | 395 kts | 352° |
| 2026-04-17 09:03 | 52.59844 | 4.38298 | 17171 ft | 398 kts | 351° |
| 2026-04-17 09:03 | 52.62581 | 4.37863 | 17785 ft | 401 kts | 351° |
| 2026-04-17 09:03 | 52.65374 | 4.37419 | 18368 ft | 405 kts | 351° |
| 2026-04-17 09:04 | 52.68189 | 4.36971 | 18954 ft | 408 kts | 351° |
| 2026-04-17 09:04 | 52.71020 | 4.36495 | 19538 ft | 410 kts | 348° |
| 2026-04-17 09:04 | 52.73713 | 4.35096 | 20027 ft | 405 kts | 327° |
| 2026-04-17 09:04 | 52.75908 | 4.32266 | 20649 ft | 399 kts | 310° |
| 2026-04-17 09:05 | 52.77518 | 4.28575 | 21214 ft | 396 kts | 296° |
| 2026-04-17 09:05 | 52.78837 | 4.24572 | 21747 ft | 398 kts | 296° |
| 2026-04-17 09:05 | 52.80164 | 4.20540 | 22217 ft | 401 kts | 296° |
| 2026-04-17 09:05 | 52.81506 | 4.16479 | 22690 ft | 404 kts | 296° |
| 2026-04-17 09:06 | 52.82867 | 4.12388 | 23185 ft | 406 kts | 296° |
| 2026-04-17 09:06 | 52.84236 | 4.08290 | 23658 ft | 408 kts | 296° |
| 2026-04-17 09:06 | 52.85614 | 4.04176 | 24127 ft | 410 kts | 296° |
| 2026-04-17 09:06 | 52.86980 | 4.00099 | 24580 ft | 411 kts | 296° |
| 2026-04-17 09:07 | 52.88391 | 3.95886 | 24987 ft | 414 kts | 296° |
| 2026-04-17 09:07 | 52.89791 | 3.91699 | 25352 ft | 417 kts | 296° |
| 2026-04-17 09:07 | 52.91177 | 3.87543 | 25758 ft | 419 kts | 296° |
| 2026-04-17 09:07 | 52.92586 | 3.83313 | 26143 ft | 420 kts | 296° |
| 2026-04-17 09:08 | 52.94001 | 3.79056 | 26508 ft | 422 kts | 296° |
| 2026-04-17 09:08 | 52.95422 | 3.74780 | 26876 ft | 424 kts | 296° |
| 2026-04-17 09:08 | 52.96846 | 3.70484 | 27238 ft | 426 kts | 296° |
| 2026-04-17 09:08 | 52.98272 | 3.66174 | 27562 ft | 427 kts | 296° |
| 2026-04-17 09:09 | 52.99755 | 3.61862 | 27864 ft | 432 kts | 301° |
| 2026-04-17 09:09 | 53.01739 | 3.58073 | 28172 ft | 441 kts | 315° |
| 2026-04-17 09:09 | 53.04225 | 3.55049 | 28536 ft | 447 kts | 326° |
| 2026-04-17 09:09 | 53.07085 | 3.52916 | 28822 ft | 456 kts | 337° |
| 2026-04-17 09:10 | 53.13135 | 3.49693 | 29545 ft | 455 kts | 337° |
| 2026-04-17 09:10 | 53.16096 | 3.48053 | 29988 ft | 452 kts | 336° |
| 2026-04-17 09:10 | 53.19060 | 3.46368 | 30451 ft | 449 kts | 336° |
| 2026-04-17 09:11 | 53.22010 | 3.44673 | 30847 ft | 447 kts | 336° |
| 2026-04-17 09:11 | 53.24947 | 3.42979 | 31189 ft | 447 kts | 336° |
| 2026-04-17 09:11 | 53.27887 | 3.41283 | 31532 ft | 446 kts | 335° |
| 2026-04-17 09:11 | 53.30813 | 3.39597 | 31938 ft | 444 kts | 335° |
| 2026-04-17 09:12 | 53.33723 | 3.37917 | 32370 ft | 440 kts | 335° |
| 2026-04-17 09:12 | 53.36616 | 3.36243 | 32708 ft | 439 kts | 335° |
| 2026-04-17 09:12 | 53.39500 | 3.34566 | 33000 ft | 439 kts | 335° |
| 2026-04-17 09:12 | 53.42385 | 3.32884 | 33286 ft | 438 kts | 335° |
| 2026-04-17 09:13 | 53.45260 | 3.31211 | 33636 ft | 436 kts | 335° |
| 2026-04-17 09:13 | 53.48120 | 3.29547 | 34007 ft | 434 kts | 335° |
| 2026-04-17 09:13 | 53.50961 | 3.27892 | 34353 ft | 432 kts | 335° |
| 2026-04-17 09:13 | 53.53797 | 3.26235 | 34601 ft | 432 kts | 335° |
| 2026-04-17 09:14 | 53.56645 | 3.24566 | 34756 ft | 434 kts | 335° |
| 2026-04-17 09:14 | 53.59504 | 3.22891 | 34948 ft | 435 kts | 335° |
| 2026-04-17 09:14 | 53.62356 | 3.21195 | 35191 ft | 433 kts | 332° |
| 2026-04-17 09:14 | 53.64971 | 3.18815 | 35322 ft | 424 kts | 317° |
| 2026-04-17 09:15 | 53.67096 | 3.15453 | 35613 ft | 415 kts | 306° |
| 2026-04-17 09:15 | 53.68735 | 3.11520 | 35895 ft | 408 kts | 295° |
| 2026-04-17 09:15 | 53.70044 | 3.07287 | 36072 ft | 408 kts | 294° |
| 2026-04-17 09:15 | 53.71332 | 3.03008 | 36130 ft | 411 kts | 294° |
| 2026-04-17 09:16 | 53.73938 | 2.94361 | 36143 ft | 413 kts | 294° |
| 2026-04-17 09:16 | 53.76555 | 2.85774 | 36155 ft | 409 kts | 294° |
| 2026-04-17 09:17 | 53.79164 | 2.77256 | 36158 ft | 407 kts | 294° |
| 2026-04-17 09:17 | 53.81757 | 2.68777 | 36159 ft | 406 kts | 294° |
| 2026-04-17 09:18 | 53.84345 | 2.60288 | 36160 ft | 406 kts | 294° |
| 2026-04-17 09:18 | 53.86939 | 2.51740 | 36171 ft | 412 kts | 293° |
| 2026-04-17 09:19 | 53.89561 | 2.43068 | 36159 ft | 420 kts | 294° |
| 2026-04-17 09:19 | 53.92234 | 2.34197 | 36149 ft | 424 kts | 293° |
| 2026-04-17 09:20 | 53.94933 | 2.25216 | 36154 ft | 425 kts | 293° |
| 2026-04-17 09:20 | 53.97615 | 2.16253 | 36145 ft | 426 kts | 293° |
| 2026-04-17 09:21 | 54.00269 | 2.07352 | 36153 ft | 425 kts | 293° |
| 2026-04-17 09:21 | 54.02932 | 1.98383 | 36131 ft | 424 kts | 293° |
| 2026-04-17 09:22 | 54.05578 | 1.89432 | 36146 ft | 423 kts | 293° |
| 2026-04-17 09:22 | 54.08217 | 1.80483 | 36139 ft | 422 kts | 293° |
| 2026-04-17 09:23 | 54.10841 | 1.71538 | 36130 ft | 422 kts | 292° |
| 2026-04-17 09:23 | 54.13456 | 1.62589 | 36139 ft | 421 kts | 292° |
| 2026-04-17 09:24 | 54.16067 | 1.53636 | 36139 ft | 422 kts | 292° |
| 2026-04-17 09:24 | 54.18670 | 1.44669 | 36141 ft | 421 kts | 292° |
| 2026-04-17 09:25 | 54.21177 | 1.35632 | 36139 ft | 421 kts | 291° |
| 2026-04-17 09:25 | 54.23626 | 1.26550 | 36121 ft | 421 kts | 290° |
| 2026-04-17 09:26 | 54.26075 | 1.17450 | 36102 ft | 422 kts | 290° |
| 2026-04-17 09:26 | 54.28529 | 1.08343 | 36106 ft | 422 kts | 290° |
| 2026-04-17 09:27 | 54.30980 | 0.99224 | 36103 ft | 421 kts | 290° |
| 2026-04-17 09:27 | 54.33013 | 0.91644 | 36091 ft | 422 kts | 290° |
| 2026-04-17 09:28 | 54.35450 | 0.82498 | 36093 ft | 422 kts | 290° |
| 2026-04-17 09:28 | 54.37886 | 0.73336 | 36080 ft | 422 kts | 290° |
| 2026-04-17 09:29 | 54.40316 | 0.64159 | 36086 ft | 422 kts | 289° |
| 2026-04-17 09:29 | 54.42736 | 0.54980 | 36080 ft | 422 kts | 289° |
| 2026-04-17 09:30 | 54.45151 | 0.45780 | 36073 ft | 422 kts | 289° |
| 2026-04-17 09:30 | 54.47558 | 0.36581 | 36077 ft | 422 kts | 289° |
| 2026-04-17 09:31 | 54.49960 | 0.27363 | 36074 ft | 422 kts | 289° |
| 2026-04-17 09:31 | 54.52338 | 0.18195 | 36077 ft | 422 kts | 289° |
| 2026-04-17 09:32 | 54.54724 | 0.08952 | 36064 ft | 423 kts | 289° |
| 2026-04-17 09:32 | 54.57106 | -0.00307 | 36066 ft | 423 kts | 289° |
| 2026-04-17 09:33 | 54.59482 | -0.09581 | 36060 ft | 423 kts | 288° |
| 2026-04-17 09:33 | 54.61857 | -0.18886 | 36070 ft | 424 kts | 288° |
| 2026-04-17 09:34 | 54.64229 | -0.28222 | 36072 ft | 425 kts | 288° |
| 2026-04-17 09:34 | 54.66595 | -0.37573 | 36060 ft | 425 kts | 288° |
| 2026-04-17 09:35 | 54.68953 | -0.46935 | 36050 ft | 425 kts | 288° |
| 2026-04-17 09:35 | 54.71311 | -0.56330 | 36027 ft | 426 kts | 288° |
| 2026-04-17 09:36 | 54.73659 | -0.65722 | 36019 ft | 425 kts | 288° |
| 2026-04-17 09:36 | 54.76338 | -0.74917 | 36033 ft | 428 kts | 292° |
| 2026-04-17 09:37 | 54.79159 | -0.84022 | 36029 ft | 428 kts | 292° |
| 2026-04-17 09:37 | 54.81960 | -0.93138 | 36028 ft | 428 kts | 292° |
| 2026-04-17 09:38 | 54.84737 | -1.02277 | 36014 ft | 428 kts | 292° |
| 2026-04-17 09:38 | 54.87480 | -1.11364 | 36013 ft | 428 kts | 291° |
| 2026-04-17 09:39 | 54.90232 | -1.20531 | 36020 ft | 428 kts | 291° |
| 2026-04-17 09:39 | 54.92975 | -1.29697 | 36008 ft | 428 kts | 291° |
| 2026-04-17 09:40 | 54.95724 | -1.38920 | 35564 ft | 434 kts | 291° |
| 2026-04-17 09:40 | 54.97113 | -1.43596 | 34931 ft | 432 kts | 291° |
| 2026-04-17 09:40 | 54.98483 | -1.48207 | 34331 ft | 427 kts | 291° |
| 2026-04-17 09:41 | 54.99848 | -1.52811 | 33564 ft | 428 kts | 291° |
| 2026-04-17 09:41 | 55.01197 | -1.57370 | 32880 ft | 419 kts | 291° |
| 2026-04-17 09:41 | 55.02513 | -1.61816 | 32425 ft | 405 kts | 290° |
| 2026-04-17 09:41 | 55.03779 | -1.66093 | 32009 ft | 391 kts | 290° |
| 2026-04-17 09:42 | 55.05013 | -1.70294 | 31178 ft | 388 kts | 290° |
| 2026-04-17 09:42 | 55.06239 | -1.74484 | 30313 ft | 387 kts | 290° |
| 2026-04-17 09:42 | 55.07455 | -1.78655 | 29605 ft | 384 kts | 290° |
| 2026-04-17 09:42 | 55.08663 | -1.82801 | 29105 ft | 381 kts | 290° |
| 2026-04-17 09:43 | 55.09863 | -1.86915 | 28612 ft | 378 kts | 290° |
| 2026-04-17 09:43 | 55.11052 | -1.90995 | 28083 ft | 376 kts | 290° |
| 2026-04-17 09:43 | 55.12238 | -1.95061 | 27554 ft | 375 kts | 291° |
| 2026-04-17 09:43 | 55.13486 | -1.99049 | 26973 ft | 371 kts | 293° |
| 2026-04-17 09:44 | 55.14771 | -2.02936 | 26191 ft | 369 kts | 293° |
| 2026-04-17 09:44 | 55.16070 | -2.06819 | 25209 ft | 372 kts | 294° |
| 2026-04-17 09:44 | 55.17377 | -2.10733 | 24297 ft | 373 kts | 294° |
| 2026-04-17 09:44 | 55.18679 | -2.14650 | 23531 ft | 371 kts | 294° |
| 2026-04-17 09:45 | 55.19969 | -2.18547 | 22849 ft | 366 kts | 294° |
| 2026-04-17 09:45 | 55.21229 | -2.22371 | 22384 ft | 362 kts | 294° |
| 2026-04-17 09:45 | 55.22488 | -2.26221 | 21770 ft | 365 kts | 294° |
| 2026-04-17 09:45 | 55.23746 | -2.30068 | 21319 ft | 362 kts | 294° |
| 2026-04-17 09:46 | 55.24977 | -2.33846 | 20792 ft | 362 kts | 294° |
| 2026-04-17 09:46 | 55.26223 | -2.37674 | 20312 ft | 361 kts | 294° |
| 2026-04-17 09:46 | 55.27464 | -2.41493 | 19815 ft | 360 kts | 294° |
| 2026-04-17 09:46 | 55.28699 | -2.45303 | 19293 ft | 359 kts | 294° |
| 2026-04-17 09:47 | 55.29932 | -2.49107 | 18810 ft | 357 kts | 294° |
| 2026-04-17 09:47 | 55.31157 | -2.52894 | 18308 ft | 356 kts | 294° |
| 2026-04-17 09:47 | 55.32375 | -2.56667 | 17813 ft | 355 kts | 294° |
| 2026-04-17 09:47 | 55.33587 | -2.60427 | 17323 ft | 353 kts | 294° |
| 2026-04-17 09:48 | 55.34794 | -2.64174 | 16829 ft | 351 kts | 294° |
| 2026-04-17 09:48 | 55.35994 | -2.67907 | 16336 ft | 350 kts | 294° |
| 2026-04-17 09:48 | 55.37185 | -2.71614 | 15854 ft | 348 kts | 294° |
| 2026-04-17 09:48 | 55.38368 | -2.75309 | 15374 ft | 346 kts | 294° |
| 2026-04-17 09:49 | 55.39546 | -2.78995 | 14887 ft | 344 kts | 294° |
| 2026-04-17 09:49 | 55.40714 | -2.82656 | 14416 ft | 343 kts | 294° |
| 2026-04-17 09:49 | 55.41880 | -2.86308 | 13944 ft | 341 kts | 294° |
| 2026-04-17 09:49 | 55.43038 | -2.89942 | 13446 ft | 340 kts | 294° |
| 2026-04-17 09:50 | 55.44188 | -2.93560 | 12995 ft | 338 kts | 294° |
| 2026-04-17 09:50 | 55.45367 | -2.97130 | 12497 ft | 339 kts | 300° |
| 2026-04-17 09:50 | 55.47126 | -2.99991 | 12004 ft | 351 kts | 326° |
| 2026-04-17 09:50 | 55.49337 | -3.01614 | 12075 ft | 336 kts | 338° |
| 2026-04-17 09:51 | 55.51518 | -3.02796 | 11917 ft | 320 kts | 339° |
| 2026-04-17 09:51 | 55.53609 | -3.03886 | 11608 ft | 310 kts | 339° |
| 2026-04-17 09:51 | 55.55668 | -3.05001 | 11074 ft | 309 kts | 338° |
| 2026-04-17 09:51 | 55.57705 | -3.06108 | 10771 ft | 301 kts | 339° |
| 2026-04-17 09:52 | 55.59682 | -3.07173 | 10430 ft | 295 kts | 338° |
| 2026-04-17 09:52 | 55.61643 | -3.08245 | 9912 ft | 295 kts | 338° |
| 2026-04-17 09:52 | 55.63598 | -3.09322 | 9468 ft | 294 kts | 338° |
| 2026-04-17 09:52 | 55.65514 | -3.10385 | 9072 ft | 291 kts | 338° |
| 2026-04-17 09:53 | 55.67465 | -3.11473 | 8654 ft | 289 kts | 339° |
| 2026-04-17 09:53 | 55.69355 | -3.12526 | 8187 ft | 288 kts | 338° |
| 2026-04-17 09:53 | 55.71283 | -3.13438 | 7818 ft | 287 kts | 352° |
| 2026-04-17 09:53 | 55.73245 | -3.12915 | 7506 ft | 285 kts | 20° |
| 2026-04-17 09:54 | 55.75059 | -3.11611 | 7184 ft | 280 kts | 21° |
| 2026-04-17 09:54 | 55.76886 | -3.10349 | 6676 ft | 282 kts | 20° |
| 2026-04-17 09:54 | 55.78712 | -3.09112 | 6242 ft | 278 kts | 20° |
| 2026-04-17 09:54 | 55.80514 | -3.07892 | 5708 ft | 276 kts | 20° |
| 2026-04-17 09:55 | 55.82274 | -3.06664 | 5293 ft | 269 kts | 21° |
| 2026-04-17 09:55 | 55.84008 | -3.05478 | 4828 ft | 265 kts | 20° |
| 2026-04-17 09:55 | 55.85723 | -3.04454 | 4574 ft | 252 kts | 12° |
| 2026-04-17 09:55 | 55.87379 | -3.03919 | 4474 ft | 233 kts | 7° |
| 2026-04-17 09:56 | 55.88923 | -3.03484 | 4338 ft | 219 kts | 8° |
| 2026-04-17 09:56 | 55.90425 | -3.03037 | 4049 ft | 220 kts | 9° |
| 2026-04-17 09:56 | 55.91923 | -3.02572 | 3966 ft | 219 kts | 9° |
| 2026-04-17 09:56 | 55.93418 | -3.02105 | 3764 ft | 217 kts | 9° |
| 2026-04-17 09:57 | 55.94913 | -3.01717 | 3374 ft | 218 kts | 358° |
| 2026-04-17 09:57 | 55.96392 | -3.02124 | 3097 ft | 213 kts | 346° |
| 2026-04-17 09:57 | 55.97847 | -3.02504 | 2802 ft | 210 kts | 350° |
| 2026-04-17 09:57 | 55.99252 | -3.02821 | 2715 ft | 196 kts | 350° |
| 2026-04-17 09:58 | 56.00574 | -3.03118 | 2588 ft | 191 kts | 351° |
| 2026-04-17 09:58 | 56.01880 | -3.03527 | 2526 ft | 189 kts | 344° |
| 2026-04-17 09:58 | 56.03148 | -3.04054 | 2525 ft | 185 kts | 344° |
| 2026-04-17 09:58 | 56.04338 | -3.04842 | 2492 ft | 181 kts | 317° |
| 2026-04-17 09:59 | 56.04909 | -3.06639 | 2560 ft | 165 kts | 269° |
| 2026-04-17 09:59 | 56.04625 | -3.08477 | 2556 ft | 149 kts | 231° |
| 2026-04-17 09:59 | 56.04119 | -3.10065 | 2525 ft | 146 kts | 241° |
| 2026-04-17 09:59 | 56.03681 | -3.11695 | 2525 ft | 144 kts | 234° |
| 2026-04-17 10:00 | 56.03168 | -3.13213 | 2512 ft | 141 kts | 233° |
| 2026-04-17 10:00 | 56.02656 | -3.14709 | 2513 ft | 141 kts | 233° |
| 2026-04-17 10:00 | 56.02150 | -3.16193 | 2524 ft | 139 kts | 232° |
| 2026-04-17 10:00 | 56.01640 | -3.17687 | 2475 ft | 143 kts | 233° |
| 2026-04-17 10:01 | 56.01118 | -3.19222 | 2277 ft | 144 kts | 233° |
| 2026-04-17 10:01 | 56.00602 | -3.20743 | 2092 ft | 143 kts | 234° |
| 2026-04-17 10:01 | 56.00083 | -3.22267 | 1911 ft | 144 kts | 235° |
| 2026-04-17 10:01 | 55.99560 | -3.23808 | 1713 ft | 145 kts | 235° |
| 2026-04-17 10:02 | 55.99038 | -3.25341 | 1520 ft | 145 kts | 236° |
| 2026-04-17 10:02 | 55.98519 | -3.26866 | 1334 ft | 147 kts | 237° |
| 2026-04-17 10:02 | 55.97993 | -3.28434 | 1169 ft | 147 kts | 237° |
| 2026-04-17 10:02 | 55.97467 | -3.30011 | 966 ft | 148 kts | 237° |
| 2026-04-17 10:03 | 55.96934 | -3.31579 | 740 ft | 147 kts | 236° |
| 2026-04-17 10:03 | 55.96405 | -3.33130 | 529 ft | 146 kts | 237° |
| 2026-04-17 10:03 | 55.95883 | -3.34672 | 292 ft | 144 kts | 236° |
| 2026-04-17 10:03 | 55.95360 | -3.36175 | 138 ft | 145 kts | 238° |
| 2026-04-17 10:04 | 55.94871 | -3.37622 | 113 ft | 113 kts | 239° |
| 2026-04-17 10:04 | 55.94578 | -3.38490 | 112 ft | 45 kts | 238° |
| 2026-04-17 10:04 | 55.94459 | -3.38842 | 113 ft | 25 kts | 239° |
| 2026-04-17 10:04 | 55.94378 | -3.38950 | 113 ft | 9 kts | 172° |
| 2026-04-17 10:05 | 55.94320 | -3.38902 | 115 ft | 9 kts | 148° |
| 2026-04-17 10:05 | 55.94279 | -3.38821 | 115 ft | 12 kts | 97° |
| 2026-04-17 10:05 | 55.94336 | -3.38639 | 115 ft | 19 kts | 58° |
| 2026-04-17 10:05 | 55.94407 | -3.38431 | 115 ft | 19 kts | 58° |
| 2026-04-17 10:06 | 55.94476 | -3.38227 | 115 ft | 19 kts | 60° |
| 2026-04-17 10:06 | 55.94541 | -3.38029 | 115 ft | 18 kts | 59° |
| 2026-04-17 10:06 | 55.94606 | -3.37839 | 115 ft | 18 kts | 59° |
| 2026-04-17 10:06 | 55.94668 | -3.37656 | 115 ft | 17 kts | 59° |
| 2026-04-17 10:07 | 55.94727 | -3.37479 | 115 ft | 16 kts | 59° |
| 2026-04-17 10:07 | 55.94786 | -3.37309 | 115 ft | 16 kts | 58° |
| 2026-04-17 10:07 | 55.94842 | -3.37147 | 115 ft | 15 kts | 58° |
| 2026-04-17 10:07 | 55.94894 | -3.36995 | 115 ft | 13 kts | 58° |
| 2026-04-17 10:08 | 55.94920 | -3.36850 | 115 ft | 13 kts | 107° |
| 2026-04-17 10:08 | 55.94847 | -3.36778 | 115 ft | 13 kts | 178° |
| 2026-04-17 10:08 | 55.94762 | -3.36761 | 115 ft | 12 kts | 147° |
| 2026-04-17 10:08 | 55.94701 | -3.36735 | 115 ft | 7 kts | 178° |
| 2026-04-17 10:09 | 55.94650 | -3.36734 | 115 ft | 8 kts | 180° |
| 2026-04-17 10:09 | 55.94593 | -3.36734 | 115 ft | 8 kts | 177° |
| 2026-04-17 10:09 | 55.94570 | -3.36676 | 115 ft | 0 kts | 89° |
| 2026-04-17 10:11 | 55.94571 | -3.36638 | 115 ft | 2 kts | 89° |
| 2026-04-17 10:11 | 55.94571 | -3.36622 | 115 ft | 0 kts | 89° |